Time;durP1;ratioP1;P1;durP2;ratioP2;P2;SDS_P1;SDS_P2;PMS_P1;PMS_P2;Temp;Humidity;BMP_temperature;BMP_pressure;BME280_temperature;BME280_humidity;BME280_pressure;Samples;Min_cycle;Max_cycle;Signal;HPM_P1;HPM_P2
2022/09/07 00:01:18;;;;;;;;;;;;;;;;;;5028621;28;20326;-67
2022/09/07 00:03:44;;;;;;;;;;;;;;;;;;5044455;28;20007;-66
2022/09/07 00:06:10;;;;;;;;;;;;;;;;;;5046575;28;20007;-66
2022/09/07 00:08:36;;;;;;;;;;;;;;;;;;5046870;28;19908;-66
2022/09/07 00:11:02;;;;;;;;;;;;;;;;;;5045682;28;19944;-66
2022/09/07 00:13:28;;;;;;;;;;;;;;;;;;5046993;28;19905;-66
2022/09/07 00:15:54;;;;;;;;;;;;;;;;;;5046174;28;20326;-66
2022/09/07 00:18:20;;;;;;;;;;;;;;;;;;5047069;28;20034;-65
2022/09/07 00:20:46;;;;;;;;;;;;;;;;;;5045838;28;20326;-66
2022/09/07 00:23:12;;;;;;;;;;;;;;;;;;5028622;28;19912;-66
2022/09/07 00:25:38;;;;;;;;;;;;;;;;;;5046247;28;19909;-66
2022/09/07 00:28:04;;;;;;;;;;;;;;;;;;5046628;28;19904;-66
2022/09/07 00:30:30;;;;;;;;;;;;;;;;;;5046099;28;19943;-66
2022/09/07 00:32:56;;;;;;;;;;;;;;;;;;5046211;28;19951;-67
2022/09/07 00:35:22;;;;;;;;;;;;;;;;;;5047301;28;19909;-66
2022/09/07 00:37:48;;;;;;;;;;;;;;;;;;5046853;28;19982;-68
2022/09/07 00:40:14;;;;;;;;;;;;;;;;;;5045104;28;19916;-68
2022/09/07 00:42:40;;;;;;;;;;;;;;;;;;5046375;28;19952;-66
2022/09/07 00:45:06;;;;;;;;;;;;;;;;;;5046632;28;19931;-67
2022/09/07 00:47:32;;;;;;;;;;;;;;;;;;5046682;28;20383;-68
2022/09/07 00:49:58;;;;;;;;;;;;;;;;;;5045346;28;19909;-66
2022/09/07 00:52:24;;;;;;;;;;;;;;;;;;5046358;28;19954;-66
2022/09/07 00:54:50;;;;;;;;;;;;;;;;;;5046809;28;19912;-67
2022/09/07 00:57:16;;;;;;;;;;;;;;;;;;5046641;28;19909;-68
2022/09/07 00:59:42;;;;;;;;;;;;;;;;;;5045342;28;19954;-69
2022/09/07 01:02:07;;;;;;;;;;;;;;;;;;5046382;28;19905;-69
2022/09/07 01:04:34;;;;;;;;;;;;;;;;;;5046436;28;19931;-67
2022/09/07 01:07:00;;;;;;;;;;;;;;;;;;5046132;28;19905;-67
2022/09/07 01:09:26;;;;;;;;;;;;;;;;;;5045857;28;19939;-67
2022/09/07 01:11:52;;;;;;;;;;;;;;;;;;5045885;28;19912;-65
2022/09/07 01:14:18;;;;;;;;;;;;;;;;;;5046929;28;19909;-67
2022/09/07 01:16:44;;;;;;;;;;;;;;;;;;5045966;28;19909;-67
2022/09/07 01:19:09;;;;;;;;;;;;;;;;;;5046365;28;19905;-66
2022/09/07 01:21:35;;;;;;;;;;;;;;;;;;5045298;28;19908;-66
2022/09/07 01:24:01;;;;;;;;;;;;;;;;;;5045819;28;19967;-66
2022/09/07 01:26:27;;;;;;;;;;;;;;;;;;5046103;28;19905;-66
2022/09/07 01:28:53;;;;;;;;;;;;;;;;;;5047026;28;19920;-66
2022/09/07 01:31:19;;;;;;;;;;;;;;;;;;5050283;28;19926;-65
2022/09/07 01:33:45;;;;;;;;;;;;;;;;;;5049562;28;19904;-66
2022/09/07 01:36:11;;;;;;;;;;;;;;;;;;5049797;28;19909;-66
2022/09/07 01:38:37;;;;;;;;;;;;;;;;;;5050004;28;19913;-66
2022/09/07 01:41:03;;;;;;;;;;;;;;;;;;5048536;28;20007;-66
2022/09/07 01:43:29;;;;;;;;;;;;;;;;;;5049634;28;19912;-65
2022/09/07 01:45:55;;;;;;;;;;;;;;;;;;5049228;28;19904;-66
2022/09/07 01:48:21;;;;;;;;;;;;;;;;;;5050392;28;19909;-65
2022/09/07 01:50:47;;;;;;;;;;;;;;;;;;5048567;28;19913;-66
2022/09/07 01:53:14;;;;;;;;;;;;;;;;;;5048526;28;19908;-66
2022/09/07 01:55:40;;;;;;;;;;;;;;;;;;5049346;28;19916;-66
2022/09/07 01:58:06;;;;;;;;;;;;;;;;;;5048530;28;19909;-66
2022/09/07 02:00:32;;;;;;;;;;;;;;;;;;5048592;28;19919;-66
2022/09/07 02:02:58;;;;;;;;;;;;;;;;;;5048526;28;19909;-66
2022/09/07 02:05:24;;;;;;;;;;;;;;;;;;5048399;28;19979;-66
2022/09/07 02:07:50;;;;;;;;;;;;;;;;;;5049143;28;19905;-66
2022/09/07 02:10:15;;;;;;;;;;;;;;;;;;5048763;28;19939;-66
2022/09/07 02:12:41;;;;;;;;;;;;;;;;;;5048096;28;19913;-66
2022/09/07 02:15:07;;;;;;;;;;;;;;;;;;5049162;28;19909;-66
2022/09/07 02:17:33;;;;;;;;;;;;;;;;;;5049081;28;19931;-66
2022/09/07 02:20:02;;;;;;;;;;;;;;;;;;5047654;28;19913;-66
2022/09/07 02:22:28;;;;;;;;;;;;;;;;;;5049265;28;19928;-66
2022/09/07 02:24:54;;;;;;;;;;;;;;;;;;5048311;28;19913;-66
2022/09/07 02:27:20;;;;;;;;;;;;;;;;;;5048443;28;19986;-66
2022/09/07 02:29:46;;;;;;;;;;;;;;;;;;5048780;28;19909;-66
2022/09/07 02:32:12;;;;;;;;;;;;;;;;;;5047456;28;19912;-66
2022/09/07 02:34:38;;;;;;;;;;;;;;;;;;5047740;28;19913;-66
2022/09/07 02:37:04;;;;;;;;;;;;;;;;;;5048605;28;19908;-66
2022/09/07 02:39:30;;;;;;;;;;;;;;;;;;5048212;28;19905;-66
2022/09/07 02:41:56;;;;;;;;;;;;;;;;;;5048658;28;19955;-66
2022/09/07 02:44:23;;;;;;;;;;;;;;;;;;5048848;28;20349;-65
2022/09/07 02:46:49;;;;;;;;;;;;;;;;;;5047046;28;19987;-66
2022/09/07 02:49:15;;;;;;;;;;;;;;;;;;5049294;28;20003;-66
2022/09/07 02:51:41;;;;;;;;;;;;;;;;;;5048329;28;19907;-65
2022/09/07 02:54:07;;;;;;;;;;;;;;;;;;5048600;28;19920;-67
2022/09/07 02:56:33;;;;;;;;;;;;;;;;;;5047352;28;20342;-66
2022/09/07 02:58:59;;;;;;;;;;;;;;;;;;5048134;28;19962;-66
2022/09/07 03:01:25;;;;;;;;;;;;;;;;;;5047138;28;19908;-66
2022/09/07 03:03:51;;;;;;;;;;;;;;;;;;5048021;28;19995;-66
2022/09/07 03:06:17;;;;;;;;;;;;;;;;;;5048275;28;20003;-66
2022/09/07 03:08:43;;;;;;;;;;;;;;;;;;5048627;28;19962;-66
2022/09/07 03:11:09;;;;;;;;;;;;;;;;;;5048306;28;19905;-66
2022/09/07 03:13:35;;;;;;;;;;;;;;;;;;5048115;28;19905;-66
2022/09/07 03:16:01;;;;;;;;;;;;;;;;;;5045786;28;19966;-65
2022/09/07 03:18:27;;;;;;;;;;;;;;;;;;5047977;28;19929;-66
2022/09/07 03:20:53;;;;;;;;;;;;;;;;;;5047600;28;20147;-65
2022/09/07 03:23:19;;;;;;;;;;;;;;;;;;5047285;28;19932;-65
2022/09/07 03:25:44;;;;;;;;;;;;;;;;;;5047512;28;20018;-66
2022/09/07 03:28:10;;;;;;;;;;;;;;;;;;5047984;28;19904;-66
2022/09/07 03:30:36;;;;;;;;;;;;;;;;;;5047398;28;19904;-66
2022/09/07 03:33:02;;;;;;;;;;;;;;;;;;5047231;28;20369;-66
2022/09/07 03:35:28;;;;;;;;;;;;;;;;;;5047125;28;19923;-65
2022/09/07 03:37:54;;;;;;;;;;;;;;;;;;5047604;28;20418;-66
2022/09/07 03:40:20;;;;;;;;;;;;;;;;;;5047657;28;19905;-66
2022/09/07 03:42:46;;;;;;;;;;;;;;;;;;5047686;28;19913;-65
2022/09/07 03:45:12;;;;;;;;;;;;;;;;;;5046734;28;19908;-66
2022/09/07 03:47:38;;;;;;;;;;;;;;;;;;5046484;28;20003;-65
2022/09/07 03:50:04;;;;;;;;;;;;;;;;;;5046088;28;19927;-65
2022/09/07 03:52:30;;;;;;;;;;;;;;;;;;5047978;28;19978;-65
2022/09/07 03:54:56;;;;;;;;;;;;;;;;;;5046095;28;19912;-66
2022/09/07 03:57:22;;;;;;;;;;;;;;;;;;5028730;28;19951;-65
2022/09/07 03:59:49;;;;;;;;;;;;;;;;;;5046814;28;19908;-65
2022/09/07 04:02:15;;;;;;;;;;;;;;;;;;5047154;28;20449;-66
2022/09/07 04:04:41;;;;;;;;;;;;;;;;;;5047084;28;19928;-66
2022/09/07 04:07:07;;;;;;;;;;;;;;;;;;5046682;28;20730;-66
2022/09/07 04:09:33;;;;;;;;;;;;;;;;;;5047399;28;19912;-65
2022/09/07 04:11:59;;;;;;;;;;;;;;;;;;5047347;28;19909;-65
2022/09/07 04:14:25;;;;;;;;;;;;;;;;;;5046879;28;19915;-66
2022/09/07 04:16:51;;;;;;;;;;;;;;;;;;5046562;28;19905;-65
2022/09/07 04:19:17;;;;;;;;;;;;;;;;;;5046276;28;19909;-66
2022/09/07 04:21:43;;;;;;;;;;;;;;;;;;5046461;28;19908;-65
2022/09/07 04:24:09;;;;;;;;;;;;;;;;;;5047205;28;20279;-65
2022/09/07 04:26:36;;;;;;;;;;;;;;;;;;5046686;28;19991;-66
2022/09/07 04:29:01;;;;;;;;;;;;;;;;;;5046297;28;19908;-66
2022/09/07 04:31:28;;;;;;;;;;;;;;;;;;5047415;28;20039;-65
2022/09/07 04:33:54;;;;;;;;;;;;;;;;;;5046439;28;20481;-65
2022/09/07 04:36:20;;;;;;;;;;;;;;;;;;5046178;28;19909;-66
2022/09/07 04:38:46;;;;;;;;;;;;;;;;;;5045781;28;20598;-65
2022/09/07 04:41:12;;;;;;;;;;;;;;;;;;5046183;28;19909;-66
2022/09/07 04:43:38;;;;;;;;;;;;;;;;;;5045503;28;19916;-65
2022/09/07 04:46:04;;;;;;;;;;;;;;;;;;5046001;28;19919;-66
2022/09/07 04:48:30;;;;;;;;;;;;;;;;;;5047267;28;19951;-66
2022/09/07 04:50:55;;;;;;;;;;;;;;;;;;5046513;28;19904;-66
2022/09/07 04:53:21;;;;;;;;;;;;;;;;;;5046642;28;19958;-66
2022/09/07 04:55:47;;;;;;;;;;;;;;;;;;5045596;28;19946;-66
2022/09/07 04:58:13;;;;;;;;;;;;;;;;;;5046477;28;19920;-66
2022/09/07 05:00:39;;;;;;;;;;;;;;;;;;5046047;28;19912;-66
2022/09/07 05:03:05;;;;;;;;;;;;;;;;;;5047837;28;19909;-65
2022/09/07 05:05:31;;;;;;;;;;;;;;;;;;5050669;28;19909;-65
2022/09/07 05:07:57;;;;;;;;;;;;;;;;;;5050477;28;19912;-66
2022/09/07 05:10:23;;;;;;;;;;;;;;;;;;5049811;28;20001;-65
2022/09/07 05:12:51;;;;;;;;;;;;;;;;;;5048019;28;19970;-65
2022/09/07 05:15:17;;;;;;;;;;;;;;;;;;5050065;28;19909;-65
2022/09/07 05:17:43;;;;;;;;;;;;;;;;;;5050041;28;20473;-65
2022/09/07 05:20:08;;;;;;;;;;;;;;;;;;5048489;28;19912;-65
2022/09/07 05:22:39;;;;;;;;;;;;;;;;;;5048548;28;19909;-65
2022/09/07 05:25:05;;;;;;;;;;;;;;;;;;5050427;28;19904;-65
2022/09/07 05:27:31;;;;;;;;;;;;;;;;;;5050649;28;19904;-65
2022/09/07 05:29:57;;;;;;;;;;;;;;;;;;5049593;28;19936;-65
2022/09/07 05:32:23;;;;;;;;;;;;;;;;;;5049258;28;19967;-65
2022/09/07 05:34:49;;;;;;;;;;;;;;;;;;5049025;28;20003;-65
2022/09/07 05:37:15;;;;;;;;;;;;;;;;;;5049769;28;20454;-65
2022/09/07 05:39:41;;;;;;;;;;;;;;;;;;5049983;28;19971;-65
2022/09/07 05:42:07;;;;;;;;;;;;;;;;;;5048850;28;19915;-65
2022/09/07 05:44:33;;;;;;;;;;;;;;;;;;5047875;28;19920;-65
2022/09/07 05:46:59;;;;;;;;;;;;;;;;;;5048619;28;19905;-65
2022/09/07 05:49:25;;;;;;;;;;;;;;;;;;5050132;28;19905;-65
2022/09/07 05:51:51;;;;;;;;;;;;;;;;;;5047676;28;19915;-65
2022/09/07 05:54:17;;;;;;;;;;;;;;;;;;5049580;28;20540;-65
2022/09/07 05:56:43;;;;;;;;;;;;;;;;;;5049590;28;19932;-64
2022/09/07 05:59:09;;;;;;;;;;;;;;;;;;5047730;28;20252;-65
2022/09/07 06:01:36;;;;;;;;;;;;;;;;;;5049194;28;19920;-65
2022/09/07 06:04:02;;;;;;;;;;;;;;;;;;5048694;28;19904;-65
2022/09/07 06:06:28;;;;;;;;;;;;;;;;;;5048803;28;19913;-65
2022/09/07 06:08:56;;;;;;;;;;;;;;;;;;5048125;28;19913;-65
2022/09/07 06:11:22;;;;;;;;;;;;;;;;;;5048374;28;19916;-65
2022/09/07 06:13:48;;;;;;;;;;;;;;;;;;5046985;28;19912;-64
2022/09/07 06:16:14;;;;;;;;;;;;;;;;;;5048675;28;19909;-65
2022/09/07 06:18:40;;;;;;;;;;;;;;;;;;5048998;28;19905;-65
2022/09/07 06:21:06;;;;;;;;;;;;;;;;;;5049181;28;19924;-65
2022/09/07 06:23:32;;;;;;;;;;;;;;;;;;5047874;28;19909;-64
2022/09/07 06:25:58;;;;;;;;;;;;;;;;;;5048686;28;19912;-64
2022/09/07 06:28:24;;;;;;;;;;;;;;;;;;5048883;28;19940;-65
2022/09/07 06:30:50;;;;;;;;;;;;;;;;;;5048961;28;19911;-64
2022/09/07 06:33:16;;;;;;;;;;;;;;;;;;5047844;28;19909;-64
2022/09/07 06:35:42;;;;;;;;;;;;;;;;;;5049112;28;19977;-64
2022/09/07 06:38:08;;;;;;;;;;;;;;;;;;5046992;28;19916;-64
2022/09/07 06:40:34;;;;;;;;;;;;;;;;;;5048612;28;20311;-64
2022/09/07 06:43:00;;;;;;;;;;;;;;;;;;5047746;28;20362;-64
2022/09/07 06:45:26;;;;;;;;;;;;;;;;;;5048032;28;19912;-64
2022/09/07 06:47:52;;;;;;;;;;;;;;;;;;5047501;28;19999;-65
2022/09/07 06:50:18;;;;;;;;;;;;;;;;;;5048539;28;19996;-64
2022/09/07 06:52:44;;;;;;;;;;;;;;;;;;5047391;28;20583;-65
2022/09/07 06:55:10;;;;;;;;;;;;;;;;;;5048279;28;19913;-64
2022/09/07 06:57:36;;;;;;;;;;;;;;;;;;5047209;28;19966;-64
2022/09/07 07:00:02;;;;;;;;;;;;;;;;;;5048112;28;19909;-64
2022/09/07 07:02:28;;;;;;;;;;;;;;;;;;5046285;28;20011;-65
2022/09/07 07:04:54;;;;;;;;;;;;;;;;;;5046540;28;19912;-63
2022/09/07 07:07:20;;;;;;;;;;;;;;;;;;5046394;28;19916;-64
2022/09/07 07:09:46;;;;;;;;;;;;;;;;;;5047841;28;19905;-64
2022/09/07 07:12:12;;;;;;;;;;;;;;;;;;5048119;28;20389;-64
2022/09/07 07:14:38;;;;;;;;;;;;;;;;;;5045831;28;19965;-64
2022/09/07 07:17:05;;;;;;;;;;;;;;;;;;5045838;28;19919;-64
2022/09/07 07:19:31;;;;;;;;;;;;;;;;;;5046987;28;19970;-64
2022/09/07 07:21:57;;;;;;;;;;;;;;;;;;5046273;28;20383;-64
2022/09/07 07:24:23;;;;;;;;;;;;;;;;;;5044713;28;20414;-64
2022/09/07 07:26:49;;;;;;;;;;;;;;;;;;5044981;28;19958;-64
2022/09/07 07:29:15;;;;;;;;;;;;;;;;;;5046270;28;19909;-64
2022/09/07 07:31:41;;;;;;;;;;;;;;;;;;5046487;28;20376;-64
2022/09/07 07:34:07;;;;;;;;;;;;;;;;;;5046454;28;19904;-64
2022/09/07 07:36:34;;;;;;;;;;;;;;;;;;5045504;28;19940;-64
2022/09/07 07:39:00;;;;;;;;;;;;;;;;;;5045933;28;20380;-64
2022/09/07 07:41:26;;;;;;;;;;;;;;;;;;5046169;28;19912;-64
2022/09/07 07:43:52;;;;;;;;;;;;;;;;;;5045405;28;20446;-63
2022/09/07 07:46:18;;;;;;;;;;;;;;;;;;5045264;28;19912;-64
2022/09/07 07:48:46;;;;;;;;;;;;;;;;;;5044057;28;20380;-64
2022/09/07 07:51:12;;;;;;;;;;;;;;;;;;5046652;28;19912;-64
2022/09/07 07:53:37;;;;;;;;;;;;;;;;;;5045454;28;19935;-64
2022/09/07 07:56:03;;;;;;;;;;;;;;;;;;5046058;28;19960;-64
2022/09/07 07:58:29;;;;;;;;;;;;;;;;;;5041352;28;20430;-64
2022/09/07 08:00:55;;;;;;;;;;;;;;;;;;5044098;28;19913;-64
2022/09/07 08:03:21;;;;;;;;;;;;;;;;;;5046641;28;19923;-64
2022/09/07 08:05:47;;;;;;;;;;;;;;;;;;5046182;28;20275;-64
2022/09/07 08:08:14;;;;;;;;;;;;;;;;;;5039965;28;19956;-64
2022/09/07 08:10:40;;;;;;;;;;;;;;;;;;5045822;28;19912;-65
2022/09/07 08:13:06;;;;;;;;;;;;;;;;;;5046529;28;20302;-64
2022/09/07 08:15:32;;;;;;;;;;;;;;;;;;5034794;28;19940;-64
2022/09/07 08:17:58;;;;;;;;;;;;;;;;;;5026564;28;20530;-64
2022/09/07 08:20:25;;;;;;;;;;;;;;;;;;5039511;28;20653;-63
2022/09/07 08:22:51;;;;;;;;;;;;;;;;;;5040190;28;19913;-64
2022/09/07 08:25:16;;;;;;;;;;;;;;;;;;5045386;28;19972;-64
2022/09/07 08:27:42;;;;;;;;;;;;;;;;;;5046554;28;19919;-65
2022/09/07 08:30:09;;;;;;;;;;;;;;;;;;5046429;28;19935;-64
2022/09/07 08:32:35;;;;;;;;;;;;;;;;;;5046400;28;19936;-64
2022/09/07 08:35:02;;;;;;;;;;;;;;;;;;5046282;28;19952;-64
2022/09/07 08:37:27;;;;;;;;;;;;;;;;;;5045528;28;19909;-64
2022/09/07 08:39:53;;;;;;;;;;;;;;;;;;5046148;28;20966;-64
2022/09/07 08:42:19;;;;;;;;;;;;;;;;;;5046180;28;19912;-64
2022/09/07 08:44:45;;;;;;;;;;;;;;;;;;5046075;28;19912;-64
2022/09/07 08:47:11;;;;;;;;;;;;;;;;;;5033009;28;20414;-64
2022/09/07 08:49:37;;;;;;;;;;;;;;;;;;5037391;28;19913;-64
2022/09/07 08:52:03;;;;;;;;;;;;;;;;;;5044595;28;20371;-63
2022/09/07 08:54:29;;;;;;;;;;;;;;;;;;5046315;28;19948;-64
2022/09/07 08:56:56;;;;;;;;;;;;;;;;;;5045403;28;20311;-64
2022/09/07 08:59:21;;;;;;;;;;;;;;;;;;5045805;28;19962;-64
2022/09/07 09:01:47;;;;;;;;;;;;;;;;;;5043687;28;19912;-64
2022/09/07 09:04:13;;;;;;;;;;;;;;;;;;5040441;28;19935;-64
2022/09/07 09:06:39;;;;;;;;;;;;;;;;;;5026659;28;19919;-63
2022/09/07 09:09:05;;;;;;;;;;;;;;;;;;5039806;28;20001;-64
2022/09/07 09:11:31;;;;;;;;;;;;;;;;;;5046452;28;19935;-64
2022/09/07 09:13:57;;;;;;;;;;;;;;;;;;5045141;28;19971;-64
2022/09/07 09:16:23;;;;;;;;;;;;;;;;;;5046390;28;19909;-64
2022/09/07 09:18:49;;;;;;;;;;;;;;;;;;5046053;28;19978;-64
2022/09/07 09:21:15;;;;;;;;;;;;;;;;;;5045527;28;19917;-64
2022/09/07 09:23:41;;;;;;;;;;;;;;;;;;5045628;28;19909;-64
2022/09/07 09:26:07;;;;;;;;;;;;;;;;;;5045867;28;19908;-59
2022/09/07 09:28:33;;;;;;;;;;;;;;;;;;5044572;28;19917;-58
2022/09/07 09:30:59;;;;;;;;;;;;;;;;;;5043891;28;19917;-59
2022/09/07 09:33:25;;;;;;;;;;;;;;;;;;5046026;28;19909;-59
2022/09/07 09:35:51;;;;;;;;;;;;;;;;;;5045712;28;19942;-59
2022/09/07 09:38:17;;;;;;;;;;;;;;;;;;5045516;28;19909;-59
2022/09/07 09:40:43;;;;;;;;;;;;;;;;;;5040147;28;20397;-60
2022/09/07 09:43:09;;;;;;;;;;;;;;;;;;5042935;28;19920;-59
2022/09/07 09:45:35;;;;;;;;;;;;;;;;;;5045752;28;20519;-59
2022/09/07 09:48:01;;;;;;;;;;;;;;;;;;5045991;28;20307;-59
2022/09/07 09:50:27;;;;;;;;;;;;;;;;;;5046137;28;19913;-59
2022/09/07 09:52:54;;;;;;;;;;;;;;;;;;5048195;28;20007;-59
2022/09/07 09:55:22;;;;;;;;;;;;;;;;;;5047903;28;20303;-59
2022/09/07 09:57:49;;;;;;;;;;;;;;;;;;5047398;28;19909;-59
2022/09/07 10:00:15;;;;;;;;;;;;;;;;;;5047180;28;19920;-59
2022/09/07 10:02:41;;;;;;;;;;;;;;;;;;5047346;28;20024;-59
2022/09/07 10:05:07;;;;;;;;;;;;;;;;;;5046120;28;20446;-59
2022/09/07 10:07:33;;;;;;;;;;;;;;;;;;5049293;28;19913;-59
2022/09/07 10:09:59;;;;;;;;;;;;;;;;;;5049155;28;19974;-59
2022/09/07 10:12:25;;;;;;;;;;;;;;;;;;5048189;28;20458;-59
2022/09/07 10:14:51;;;;;;;;;;;;;;;;;;5047607;28;19917;-59
2022/09/07 10:17:17;;;;;;;;;;;;;;;;;;5049203;28;19916;-59
2022/09/07 10:19:43;;;;;;;;;;;;;;;;;;5048711;28;20008;-59
2022/09/07 10:22:09;;;;;;;;;;;;;;;;;;5049503;28;19970;-59
2022/09/07 10:24:35;;;;;;;;;;;;;;;;;;5047340;28;20055;-59
2022/09/07 10:27:01;;;;;;;;;;;;;;;;;;5046901;28;19917;-59
2022/09/07 10:29:27;;;;;;;;;;;;;;;;;;5049072;28;19998;-59
2022/09/07 10:31:53;;;;;;;;;;;;;;;;;;5048447;28;20043;-59
2022/09/07 10:34:19;;;;;;;;;;;;;;;;;;5048580;28;20019;-59
2022/09/07 10:36:45;;;;;;;;;;;;;;;;;;5047188;28;20043;-59
2022/09/07 10:39:12;;;;;;;;;;;;;;;;;;5047894;28;19999;-59
2022/09/07 10:41:38;;;;;;;;;;;;;;;;;;5043065;28;19991;-59
2022/09/07 10:44:03;;;;;;;;;;;;;;;;;;5047071;28;20481;-59
2022/09/07 10:46:29;;;;;;;;;;;;;;;;;;5046720;28;20359;-59
2022/09/07 10:48:55;;;;;;;;;;;;;;;;;;5046867;28;19913;-59
2022/09/07 10:51:21;;;;;;;;;;;;;;;;;;5045655;28;19927;-59
2022/09/07 10:53:47;;;;;;;;;;;;;;;;;;5046059;28;20144;-59
2022/09/07 10:56:13;;;;;;;;;;;;;;;;;;5042888;28;19928;-59
2022/09/07 10:59:00;;;;;;;0.40;0.40;;;;;;;;;;5045401;28;20491;-58
2022/09/07 11:01:26;;;;;;;1.48;0.38;;;;;;;;;;5045374;28;20036;-58
2022/09/07 11:04:12;;;;;;;0.40;0.40;;;;;;;;;;5045828;28;20108;-58
2022/09/07 11:06:43;;;;;;;0.90;0.40;;;;;;;;;;5042166;28;20033;-58
2022/09/07 11:09:34;;;;;;;0.40;0.40;;;;;;;;;;5045887;28;20025;-58
2022/09/07 11:12:04;;;;;;;0.40;0.40;;;;;;;;;;5046860;28;20434;-58
2022/09/07 11:14:30;;;;;;;;;;;;;;;;;;5047359;28;20040;-58
2022/09/07 11:16:56;;;;;;;;;;;;;;;;;;5047562;28;19908;-59
2022/09/07 11:19:22;;;;;;;;;;;;;;;;;;5047232;28;20058;-58
2022/09/07 11:21:48;;;;;;;;;;;;;;;;;;5047611;28;20003;-59
2022/09/07 11:24:14;;;;;;;;;;;;;;;;;;5047595;28;19912;-58
2022/09/07 11:26:40;;;;;;;;;;;;;;;;;;5046658;28;19913;-59
2022/09/07 11:29:06;;;;;;;;;;;;;;;;;;5047697;28;19909;-58
2022/09/07 11:31:32;;;;;;;;;;;;;;;;;;5047709;28;19959;-59
2022/09/07 11:33:58;;;;;;;;;;;;;;;;;;5046521;28;19905;-58
2022/09/07 11:36:24;;;;;;;;;;;;;;;;;;5046033;28;20376;-58
2022/09/07 11:38:50;;;;;;;;;;;;;;;;;;5047362;28;19919;-59
2022/09/07 11:41:16;;;;;;;;;;;;;;;;;;5043581;28;19960;-59
2022/09/07 11:43:42;;;;;;;;;;;;;;;;;;5039958;28;20315;-58
2022/09/07 11:46:08;;;;;;;;;;;;;;;;;;5043807;28;19919;-58
2022/09/07 11:48:34;;;;;;;;;;;;;;;;;;5047392;28;19999;-58
2022/09/07 11:51:00;;;;;;;;;;;;;;;;;;5047068;28;19927;-58
2022/09/07 11:53:26;;;;;;;;;;;;;;;;;;5045923;28;19924;-58
2022/09/07 11:55:52;;;;;;;;;;;;;;;;;;5045717;28;19968;-58
2022/09/07 11:58:18;;;;;;;;;;;;;;;;;;5047454;28;19960;-58
2022/09/07 12:00:44;;;;;;;;;;;;;;;;;;5045582;28;19917;-58
2022/09/07 12:03:10;;;;;;;;;;;;;;;;;;5046956;28;19920;-58
2022/09/07 12:05:36;;;;;;;;;;;;;;;;;;5046531;28;19913;-58
2022/09/07 12:08:02;;;;;;;;;;;;;;;;;;5045880;28;19923;-58
2022/09/07 12:10:28;;;;;;;;;;;;;;;;;;5046182;28;19995;-59
2022/09/07 12:12:55;;;;;;;;;;;;;;;;;;5040595;28;19908;-58
2022/09/07 12:15:21;;;;;;;;;;;;;;;;;;5047470;28;19920;-58
2022/09/07 12:17:47;;;;;;;;;;;;;;;;;;5045848;28;19917;-59
2022/09/07 12:20:14;;;;;;;;;;;;;;;;;;5042877;28;20019;-59
2022/09/07 12:22:40;;;;;;;;;;;;;;;;;;5043634;28;19919;-58
2022/09/07 12:25:05;;;;;;;;;;;;;;;;;;5043837;28;19947;-58
2022/09/07 12:27:31;;;;;;;;;;;;;;;;;;5045264;28;19909;-58
2022/09/07 12:29:58;;;;;;;;;;;;;;;;;;5047256;28;19904;-58
2022/09/07 12:32:24;;;;;;;;;;;;;;;;;;5044683;28;19909;-58
2022/09/07 12:34:50;;;;;;;;;;;;;;;;;;5045576;28;19956;-58
2022/09/07 12:37:17;;;;;;;;;;;;;;;;;;5041578;28;20028;-58
2022/09/07 12:39:44;;;;;;;;;;;;;;;;;;5045058;28;19921;-58
2022/09/07 12:42:10;;;;;;;;;;;;;;;;;;5044065;28;19970;-58
2022/09/07 12:44:36;;;;;;;;;;;;;;;;;;5045510;28;19917;-58
2022/09/07 12:47:02;;;;;;;;;;;;;;;;;;5046170;28;20665;-59
2022/09/07 12:49:28;;;;;;;;;;;;;;;;;;5046681;28;19905;-58
2022/09/07 12:51:53;;;;;;;;;;;;;;;;;;5045059;28;20427;-59
2022/09/07 12:54:19;;;;;;;;;;;;;;;;;;5045486;28;19958;-58
2022/09/07 12:56:45;;;;;;;;;;;;;;;;;;5044484;28;19905;-58
2022/09/07 12:59:11;;;;;;;;;;;;;;;;;;5045027;28;19922;-58
2022/09/07 13:01:37;;;;;;;;;;;;;;;;;;5044799;28;19962;-59
2022/09/07 13:04:03;;;;;;;;;;;;;;;;;;5044696;28;19928;-58
2022/09/07 13:06:30;;;;;;;;;;;;;;;;;;5044968;28;20008;-59
2022/09/07 13:08:56;;;;;;;;;;;;;;;;;;5044335;28;19950;-59
2022/09/07 13:11:21;;;;;;;;;;;;;;;;;;5044624;28;19916;-59
2022/09/07 13:13:47;;;;;;;;;;;;;;;;;;5045117;28;19931;-58
2022/09/07 13:16:13;;;;;;;;;;;;;;;;;;5044732;28;19955;-59
2022/09/07 13:18:39;;;;;;;;;;;;;;;;;;5044381;28;19908;-59
2022/09/07 13:21:06;;;;;;;;;;;;;;;;;;5044763;28;19905;-59
2022/09/07 13:23:33;;;;;;;;;;;;;;;;;;5044980;28;19912;-59
2022/09/07 13:25:59;;;;;;;;;;;;;;;;;;5048281;28;19905;-58
2022/09/07 13:28:25;;;;;;;;;;;;;;;;;;5048777;28;19904;-59
2022/09/07 13:30:52;;;;;;;;;;;;;;;;;;5048418;28;19904;-59
2022/09/07 13:33:18;;;;;;;;;;;;;;;;;;5048825;28;19909;-59
2022/09/07 13:35:45;;;;;;;;;;;;;;;;;;5047855;28;19915;-58
2022/09/07 13:38:11;;;;;;;;;;;;;;;;;;5048137;28;19980;-58
2022/09/07 13:40:37;;;;;;;;;;;;;;;;;;5047672;28;19909;-59
2022/09/07 13:43:03;;;;;;;;;;;;;;;;;;5047969;28;19928;-59
2022/09/07 13:45:30;;;;;;;;;;;;;;;;;;5047746;28;19944;-59
2022/09/07 13:47:56;;;;;;;;;;;;;;;;;;5048506;28;19905;-59
2022/09/07 13:50:22;;;;;;;;;;;;;;;;;;5047557;28;19908;-59
2022/09/07 13:52:48;;;;;;;;;;;;;;;;;;5047399;28;19912;-58
2022/09/07 13:55:14;;;;;;;;;;;;;;;;;;5047707;28;19978;-58
2022/09/07 13:57:40;;;;;;;;;;;;;;;;;;5046341;28;19950;-59
2022/09/07 14:00:06;;;;;;;;;;;;;;;;;;5047946;28;19908;-59
2022/09/07 14:02:32;;;;;;;;;;;;;;;;;;5048528;28;19970;-58
2022/09/07 14:04:59;;;;;;;;;;;;;;;;;;5048166;28;19905;-59
2022/09/07 14:07:26;;;;;;;;;;;;;;;;;;5047792;28;20299;-58
2022/09/07 14:09:52;;;;;;;;;;;;;;;;;;5047195;28;19911;-59
2022/09/07 14:12:19;;;;;;;;;;;;;;;;;;5047560;28;20372;-59
2022/09/07 14:14:44;;;;;;;;;;;;;;;;;;5047283;28;20003;-58
2022/09/07 14:17:11;;;;;;;;;;;;;;;;;;5047961;28;20004;-59
2022/09/07 14:19:38;;;;;;;;;;;;;;;;;;5047540;28;19904;-59
2022/09/07 14:22:04;;;;;;;;;;;;;;;;;;5047379;28;19923;-59
2022/09/07 14:24:29;;;;;;;;;;;;;;;;;;5048033;28;20392;-58
2022/09/07 14:26:55;;;;;;;;;;;;;;;;;;5047278;28;20415;-58
2022/09/07 14:29:21;;;;;;;;;;;;;;;;;;5047367;28;19958;-59
2022/09/07 14:31:47;;;;;;;;;;;;;;;;;;5047052;28;20023;-59
2022/09/07 14:34:14;;;;;;;;;;;;;;;;;;5047323;28;19913;-59
2022/09/07 14:36:40;;;;;;;;;;;;;;;;;;5045899;28;20433;-58
2022/09/07 14:39:07;;;;;;;;;;;;;;;;;;5046890;28;19915;-59
2022/09/07 14:41:33;;;;;;;;;;;;;;;;;;5047742;28;20387;-59
2022/09/07 14:43:59;;;;;;;;;;;;;;;;;;5047573;28;19920;-59
2022/09/07 14:46:26;;;;;;;;;;;;;;;;;;5047128;28;20284;-59
2022/09/07 14:48:52;;;;;;;;;;;;;;;;;;5046112;28;19905;-59
2022/09/07 14:51:18;;;;;;;;;;;;;;;;;;5048062;28;19919;-59
2022/09/07 14:53:44;;;;;;;;;;;;;;;;;;5046115;28;19966;-58
2022/09/07 14:56:10;;;;;;;;;;;;;;;;;;5046672;28;19912;-58
2022/09/07 14:58:37;;;;;;;;;;;;;;;;;;5044518;28;19916;-58
2022/09/07 15:01:03;;;;;;;;;;;;;;;;;;5047799;28;19987;-58
2022/09/07 15:03:29;;;;;;;;;;;;;;;;;;5046829;28;19999;-58
2022/09/07 15:05:55;;;;;;;;;;;;;;;;;;5048150;28;19904;-59
2022/09/07 15:08:21;;;;;;;;;;;;;;;;;;5047725;28;19908;-58
2022/09/07 15:10:47;;;;;;;;;;;;;;;;;;5047411;28;19916;-59
2022/09/07 15:13:12;;;;;;;;;;;;;;;;;;5046144;28;20009;-59
2022/09/07 15:15:39;;;;;;;;;;;;;;;;;;5044261;28;19924;-58
2022/09/07 15:18:05;;;;;;;;;;;;;;;;;;5046194;28;19912;-58
2022/09/07 15:20:31;;;;;;;;;;;;;;;;;;5048688;28;19909;-57
2022/09/07 15:22:57;;;;;;;;;;;;;;;;;;5047426;28;19912;-57
2022/09/07 15:25:22;;;;;;;;;;;;;;;;;;5047944;28;19904;-58
2022/09/07 15:27:49;;;;;;;;;;;;;;;;;;5046564;28;19916;-58
2022/09/07 15:30:15;;;;;;;;;;;;;;;;;;5046887;28;20409;-58
2022/09/07 15:32:41;;;;;;;;;;;;;;;;;;5043750;28;19916;-58
2022/09/07 15:35:06;;;;;;;;;;;;;;;;;;5043550;28;20367;-59
2022/09/07 15:37:32;;;;;;;;;;;;;;;;;;5042888;28;19954;-58
2022/09/07 15:39:58;;;;;;;2.03;0.98;;;;;;;;;;5038613;28;20424;-58
2022/09/07 15:42:24;;;;;;;2.33;1.00;;;;;;;;;;5025811;28;20034;-57
2022/09/07 15:44:52;;;;;;;2.13;0.93;;;;;;;;;;5042154;28;20033;-57
2022/09/07 15:47:18;;;;;;;2.08;0.95;;;;;;;;;;5044565;28;20619;-57
2022/09/07 15:49:45;;;;;;;3.70;1.15;;;;;;;;;;5043012;28;20075;-58
2022/09/07 15:52:12;;;;;;;2.40;1.27;;;;;;;;;;5045056;28;20053;-57
2022/09/07 15:54:38;;;;;;;2.08;1.00;;;;;;;;;;5044858;28;20534;-57
2022/09/07 15:57:04;;;;;;;3.13;1.00;;;;;;;;;;5043362;28;20131;-57
2022/09/07 15:59:30;;;;;;;1.23;0.90;;;;;;;;;;5046108;28;20025;-57
2022/09/07 16:01:56;;;;;;;1.17;0.70;;;;;;;;;;5045003;28;20043;-57
2022/09/07 16:04:23;;;;;;;2.17;0.85;;;;;;;;;;5045199;28;20025;-57
2022/09/07 16:06:49;;;;;;;1.52;0.80;;;;;;;;;;5044649;28;20120;-57
2022/09/07 16:09:15;;;;;;;1.08;0.50;;;;;;;;;;5044571;28;20104;-57
2022/09/07 16:11:41;;;;;;;0.80;0.68;;;;;;;;;;5044768;28;20104;-57
2022/09/07 16:14:10;;;;;;;;;;;;;;;;;;5045040;28;20469;-58
2022/09/07 16:16:36;;;;;;;;;;;;;;;;;;5045248;28;19909;-58
2022/09/07 16:19:02;;;;;;;;;;;;;;;;;;5044019;28;19915;-57
2022/09/07 16:21:28;;;;;;;;;;;;;;;;;;5045225;28;19904;-57
2022/09/07 16:23:55;;;;;;;;;;;;;;;;;;5043952;28;19912;-58
2022/09/07 16:26:21;;;;;;;;;;;;;;;;;;5044637;28;19920;-58
2022/09/07 16:28:47;;;;;;;;;;;;;;;;;;5044818;28;19909;-58
2022/09/07 16:31:14;;;;;;;;;;;;;;;;;;5043777;28;19917;-58